createdAt,value
2019-05-30T00:04:41.216Z,9.07
2019-05-30T00:09:48.033Z,9.13
2019-05-30T00:14:54.523Z,9.93
2019-05-30T00:20:03.159Z,8.70
2019-05-30T00:25:10.245Z,11.14
2019-05-30T00:30:24.586Z,11.48
2019-05-30T00:35:24.476Z,12.00
2019-05-30T00:40:30.668Z,11.63
2019-05-30T00:45:37.364Z,10.78
2019-05-30T00:50:44.234Z,9.43
2019-05-30T00:55:51.383Z,12.37
2019-05-30T01:00:59.043Z,10.48
2019-05-30T01:06:05.346Z,9.75
2019-05-30T01:11:11.748Z,10.30
2019-05-30T01:16:18.484Z,13.00
2019-05-30T01:21:25.171Z,10.82
2019-05-30T01:26:31.644Z,11.25
2019-05-30T01:31:38.539Z,12.47
2019-05-30T01:36:45.650Z,13.00
2019-05-30T01:41:52.140Z,10.97
2019-05-30T01:46:58.418Z,10.73
2019-05-30T01:52:04.873Z,12.00
2019-05-30T01:57:11.581Z,10.60
2019-05-30T02:02:18.373Z,10.47
2019-05-30T02:07:24.864Z,11.50
2019-05-30T02:12:31.445Z,11.10
2019-05-30T02:17:37.731Z,11.77
2019-05-30T02:22:44.324Z,12.43
2019-05-30T02:27:51.255Z,13.05
2019-05-30T02:32:57.913Z,12.90
2019-05-30T02:38:05.233Z,13.30
2019-05-30T02:43:12.522Z,17.45
2019-05-30T02:48:18.721Z,14.43
2019-05-30T02:53:25.260Z,13.63
2019-05-30T02:58:31.993Z,13.00
2019-05-30T03:03:38.870Z,13.78
2019-05-30T03:08:45.232Z,12.97
2019-05-30T03:13:51.598Z,14.10
2019-05-30T03:18:58.513Z,12.35
2019-05-30T03:24:05.676Z,11.10
2019-05-30T03:29:14.340Z,16.90
2019-05-30T03:34:27.786Z,37.95
2019-05-30T03:39:29.473Z,17.73
2019-05-30T03:44:35.842Z,18.02
2019-05-30T03:49:44.792Z,47.90
2019-05-30T03:54:52.051Z,57.35
2019-05-30T04:00:06.143Z,18.87
2019-05-30T04:05:16.357Z,12.73
2019-05-30T04:10:25.455Z,11.13
2019-05-30T04:15:35.399Z,12.07
2019-05-30T04:20:44.017Z,11.50
2019-05-30T04:25:51.040Z,11.93
2019-05-30T04:30:57.838Z,12.37
2019-05-30T04:36:04.468Z,11.93
2019-05-30T04:41:13.279Z,13.90
2019-05-30T04:46:21.772Z,12.80
2019-05-30T04:51:27.911Z,13.97
2019-05-30T04:56:34.210Z,12.65
2019-05-30T05:01:40.654Z,12.07
2019-05-30T05:06:47.427Z,13.93
2019-05-30T05:11:54.152Z,11.88
2019-05-30T05:17:00.350Z,28.20
2019-05-30T05:22:07.484Z,10.47
2019-05-30T05:27:13.650Z,11.78
2019-05-30T05:32:20.473Z,10.72
2019-05-30T05:37:27.446Z,13.22
2019-05-30T05:42:33.881Z,12.85
2019-05-30T05:47:40.051Z,13.13
2019-05-30T05:52:46.861Z,18.63
2019-05-30T05:57:53.953Z,20.27
2019-05-30T06:03:00.053Z,17.73
2019-05-30T06:08:06.925Z,16.03
2019-05-30T06:13:14.008Z,14.40
2019-05-30T06:18:20.295Z,21.60
2019-05-30T06:23:27.806Z,16.07
2019-05-30T06:28:34.309Z,15.50
2019-05-30T06:33:41.215Z,16.17
2019-05-30T06:38:47.697Z,14.78
2019-05-30T06:43:53.837Z,15.72
2019-05-30T06:49:01.265Z,17.03
2019-05-30T06:54:08.155Z,19.65
2019-05-30T06:59:14.321Z,16.93
2019-05-30T07:04:21.087Z,18.27
2019-05-30T07:09:29.165Z,18.98
2019-05-30T07:14:35.845Z,17.80
2019-05-30T07:19:42.319Z,19.43
2019-05-30T07:24:49.821Z,18.55
2019-05-30T07:29:56.477Z,17.95
2019-05-30T07:35:07.230Z,16.13
2019-05-30T07:40:11.599Z,16.47
2019-05-30T07:45:18.157Z,15.60
2019-05-30T07:50:24.713Z,13.90
2019-05-30T07:55:31.469Z,16.80
2019-05-30T08:00:38.291Z,17.20
2019-05-30T08:05:44.675Z,17.83
2019-05-30T08:10:51.820Z,16.70
2019-05-30T08:15:57.947Z,16.23
2019-05-30T08:21:04.061Z,16.73
2019-05-30T08:26:10.241Z,19.48
2019-05-30T08:31:17.098Z,17.00
2019-05-30T08:36:23.951Z,17.43
2019-05-30T08:41:31.135Z,17.10
2019-05-30T08:46:37.939Z,16.97
2019-05-30T08:51:44.808Z,38.92
2019-05-30T08:56:51.729Z,13.60
2019-05-30T09:01:58.501Z,10.63
2019-05-30T09:07:04.669Z,10.38
2019-05-30T09:12:11.436Z,10.18
2019-05-30T09:17:17.549Z,7.78
2019-05-30T09:22:24.647Z,10.75
2019-05-30T09:27:31.628Z,8.43
2019-05-30T09:32:39.599Z,7.20
2019-05-30T09:37:47.819Z,10.55
2019-05-30T09:42:54.192Z,7.50
2019-05-30T09:48:00.525Z,7.40
2019-05-30T09:53:06.631Z,5.40
2019-05-30T09:58:12.960Z,5.27
2019-05-30T10:03:19.131Z,4.90
2019-05-30T10:08:25.675Z,5.87
2019-05-30T10:13:31.882Z,6.03
2019-05-30T10:18:38.227Z,5.83
2019-05-30T10:23:47.190Z,6.70
2019-05-30T10:28:53.521Z,5.63
2019-05-30T10:33:59.722Z,5.67
2019-05-30T10:39:07.736Z,5.10
2019-05-30T10:44:13.940Z,6.35
2019-05-30T10:49:33.606Z,4.90
2019-05-30T10:54:28.193Z,2.75
2019-05-30T10:59:34.743Z,4.85
2019-05-30T11:04:40.911Z,4.00
2019-05-30T11:09:52.720Z,4.47
2019-05-30T11:14:59.249Z,5.10
2019-05-30T11:20:06.939Z,3.57
2019-05-30T11:25:13.123Z,4.33
2019-05-30T11:30:19.631Z,3.90
2019-05-30T11:35:26.028Z,3.30
2019-05-30T11:40:32.802Z,2.98
2019-05-30T11:45:39.767Z,4.83
2019-05-30T11:50:46.289Z,6.00
2019-05-30T11:55:54.067Z,4.40
2019-05-30T12:01:00.726Z,4.47
2019-05-30T12:06:07.088Z,3.83
2019-05-30T12:11:13.863Z,3.40
2019-05-30T12:16:20.388Z,2.90
2019-05-30T12:21:29.757Z,3.30
2019-05-30T12:26:35.281Z,4.20
2019-05-30T12:31:42.309Z,4.47
2019-05-30T12:36:49.111Z,4.35
2019-05-30T12:41:56.801Z,3.22
2019-05-30T12:47:03.516Z,2.50
2019-05-30T12:52:10.043Z,3.27
2019-05-30T12:57:16.531Z,3.42
2019-05-30T13:02:22.984Z,3.35
2019-05-30T13:07:29.956Z,3.70
2019-05-30T13:12:36.427Z,2.17
2019-05-30T13:17:43.092Z,3.77
2019-05-30T13:22:49.559Z,2.90
2019-05-30T13:27:55.883Z,3.03
2019-05-30T13:33:03.067Z,2.57
2019-05-30T13:38:09.744Z,2.08
2019-05-30T13:43:16.202Z,4.33
2019-05-30T13:48:23.017Z,3.57
2019-05-30T13:53:29.155Z,2.00
2019-05-30T13:58:35.582Z,2.27
2019-05-30T14:03:42.015Z,2.10
2019-05-30T14:08:50.702Z,2.20
2019-05-30T14:13:56.710Z,1.50
2019-05-30T14:19:03.169Z,1.73
2019-05-30T14:24:09.976Z,1.90
2019-05-30T14:29:16.084Z,3.63
2019-05-30T14:34:22.104Z,1.73
2019-05-30T14:39:28.538Z,2.50
2019-05-30T14:44:35.044Z,2.27
2019-05-30T14:49:41.143Z,3.57
2019-05-30T14:54:48.037Z,2.67
2019-05-30T14:59:54.722Z,2.85
2019-05-30T15:05:01.516Z,1.85
2019-05-30T15:10:08.690Z,1.60
2019-05-30T15:15:18.210Z,2.90
2019-05-30T15:20:23.803Z,1.67
2019-05-30T15:25:29.899Z,2.40
2019-05-30T15:30:36.326Z,1.57
2019-05-30T15:35:42.680Z,2.45
2019-05-30T15:40:49.643Z,3.47
2019-05-30T15:45:56.671Z,2.40
2019-05-30T15:51:03.348Z,2.30
2019-05-30T15:56:09.579Z,4.15
2019-05-30T16:01:16.003Z,3.97
2019-05-30T16:06:22.815Z,2.07
2019-05-30T16:11:29.340Z,2.10
2019-05-30T16:16:40.238Z,2.62
2019-05-30T16:21:44.376Z,2.23
2019-05-30T16:26:50.926Z,2.40
2019-05-30T16:31:57.498Z,2.50
2019-05-30T16:37:03.779Z,2.00
2019-05-30T16:42:10.779Z,6.10
2019-05-30T16:47:18.177Z,2.67
2019-05-30T16:52:24.978Z,3.75
2019-05-30T16:57:32.252Z,2.40
2019-05-30T17:02:38.847Z,1.92
2019-05-30T17:07:48.385Z,2.90
2019-05-30T17:12:54.237Z,40.00
2019-05-30T17:18:00.399Z,4.03
2019-05-30T17:23:06.842Z,1.87
2019-05-30T17:28:14.954Z,2.40
2019-05-30T17:33:23.187Z,1.90
2019-05-30T17:38:29.323Z,3.13
2019-05-30T17:43:35.823Z,3.13
2019-05-30T17:48:42.998Z,2.95
2019-05-30T17:53:49.440Z,2.00
2019-05-30T17:58:57.291Z,1.98
2019-05-30T18:04:03.439Z,2.02
2019-05-30T18:09:09.623Z,2.90
2019-05-30T18:14:15.871Z,2.62
2019-05-30T18:19:23.312Z,2.23
2019-05-30T18:24:30.208Z,1.97
2019-05-30T18:29:37.058Z,2.55
2019-05-30T18:34:43.572Z,3.10
2019-05-30T18:39:50.680Z,2.25
2019-05-30T18:44:57.642Z,2.67
2019-05-30T18:50:06.425Z,2.94
2019-05-30T18:55:12.611Z,3.03
2019-05-30T19:00:19.639Z,2.20
2019-05-30T19:05:26.602Z,3.27
2019-05-30T19:10:34.307Z,3.00
2019-05-30T19:15:40.504Z,2.20
2019-05-30T19:20:47.166Z,3.05
2019-05-30T19:25:53.276Z,2.10
2019-05-30T19:30:59.721Z,2.37
2019-05-30T19:36:06.338Z,9.85
2019-05-30T19:41:13.006Z,3.50
2019-05-30T19:46:19.586Z,2.60
2019-05-30T19:51:26.125Z,2.50
2019-05-30T19:56:36.474Z,4.87
2019-05-30T20:01:41.572Z,4.83
2019-05-30T20:06:47.864Z,5.67
2019-05-30T20:12:03.841Z,4.53
2019-05-30T20:17:02.101Z,4.08
2019-05-30T20:22:08.200Z,4.20
2019-05-30T20:27:14.295Z,4.30
2019-05-30T20:32:20.962Z,4.12
2019-05-30T20:37:27.415Z,4.70
2019-05-30T20:42:34.701Z,5.80
2019-05-30T20:47:42.650Z,5.70
2019-05-30T20:52:49.625Z,4.12
2019-05-30T20:57:56.465Z,6.40
2019-05-30T21:03:04.099Z,4.85
2019-05-30T21:08:10.624Z,2.53
2019-05-30T21:13:18.942Z,4.10
2019-05-30T21:18:27.388Z,5.60
2019-05-30T21:23:33.871Z,2.90
2019-05-30T21:28:40.958Z,4.30
2019-05-30T21:33:48.260Z,5.57
2019-05-30T21:38:55.280Z,4.83
2019-05-30T21:44:01.623Z,3.58
2019-05-30T21:49:08.331Z,3.63
2019-05-30T21:54:15.022Z,4.90
2019-05-30T21:59:21.819Z,4.00
2019-05-30T22:04:27.992Z,2.80
2019-05-30T22:09:34.472Z,4.10
2019-05-30T22:14:41.743Z,4.03
2019-05-30T22:19:50.038Z,4.30
2019-05-30T22:24:56.802Z,3.90
2019-05-30T22:30:03.276Z,2.80
2019-05-30T22:35:09.644Z,4.67
2019-05-30T22:40:16.010Z,3.62
2019-05-30T22:45:22.523Z,3.80
2019-05-30T22:50:29.226Z,3.75
2019-05-30T22:55:35.597Z,3.75
2019-05-30T23:00:41.980Z,5.60
2019-05-30T23:05:49.273Z,4.80
2019-05-30T23:10:55.887Z,4.55
2019-05-30T23:16:01.926Z,5.37
2019-05-30T23:21:08.637Z,3.95
2019-05-30T23:26:14.851Z,4.87
2019-05-30T23:31:21.288Z,3.50
2019-05-30T23:36:27.572Z,5.37
2019-05-30T23:41:34.268Z,4.33
2019-05-30T23:46:40.536Z,4.10
2019-05-30T23:51:47.436Z,3.70
2019-05-30T23:56:54.729Z,3.40
